Latest Coastal Weather Observations for Carnarvon

IDW60701

Issued at 8:02 am WST Sunday 29 May 2016 (issued every 10 minutes, with the page automatically refreshed every 10 minutes)

About coastal observations | Map of coastal stations | Coastal observations for WA | Marine services | Other Formats
Station Details ID: 006011 Name: CARNARVON AIRPORT Lat: -24.89 Lon: 113.67 Height: 4.0 m
Data from the previous 72 hours. | See also: Recent months at Carnarvon
Date/Time
WST
Temp

°C
Wind Pressure Rain
since 9am
mm
Weather Cloud Vis
km
Sea
Height
m
Swell
Dir
 
Speed
knots
Gust
knots
hPa Trend Height
m
Period
s
Dir
29/08:00am 15.8 ESE 8 10 1017.7 - 0.0 - - 10 - - - -
29/07:30am 14.0 ESE 6 7 1017.4 - 0.0 - - 10 - - - -
29/07:00am 13.9 SE 7 9 1017.2 - 0.0 - - 10 - - - -
29/06:30am 14.0 SE 7 8 1017.0 - 0.0 - - 10 - - - -
29/06:00am 14.1 SE 7 8 1016.8 - 0.0 - - 10 - - - -
29/05:30am 14.8 SE 9 10 1016.6 - 0.0 - - 10 - - - -
29/05:00am 14.8 SSE 7 9 1016.6 - 0.0 - - 10 - - - -
29/04:30am 14.7 SSE 7 9 1016.5 - 0.0 - - 10 - - - -
29/04:00am 14.4 SE 7 8 1016.5 - 0.0 - - 10 - - - -
29/03:30am 14.3 SE 7 9 1016.6 - 0.0 - Partly cloudy 10 - - - -
29/03:00am 15.2 SSE 9 10 1016.5 - 0.0 - - 10 - - - -
29/02:30am 14.0 SSE 7 8 1016.6 - 0.0 - - 10 - - - -
29/02:00am 15.5 S 7 8 1016.9 - 0.0 - - 10 - - - -
29/01:30am 14.9 S 6 8 1016.9 - 0.0 - - 10 - - - -
29/01:00am 15.3 S 6 6 1016.8 - 0.0 - - 10 - - - -
29/12:30am 16.2 S 6 7 1016.9 - 0.0 - - 10 - - - -
29/12:00am 16.4 SSE 6 7 1016.8 - 0.0 - - 10 - - - -
 
Date/Time
WST
Temp

°C
Wind Pressure Rain
since 9am
mm
Weather Cloud Vis
km
Sea
Height
m
Swell
Dir
 
Speed
knots
Gust
knots
hPa Trend Height
m
Period
s
Dir
28/11:30pm 17.1 S 7 8 1016.9 - 0.0 - - 10 - - - -
28/11:00pm 17.1 S 7 8 1017.2 - 0.0 - - 10 - - - -
28/10:30pm 18.2 S 6 7 1017.2 - 0.0 - - 10 - - - -
28/10:00pm 18.9 SSW 7 9 1017.3 - 0.0 - - 10 - - - -
28/09:30pm 19.4 SSW 7 8 1017.3 - 0.0 - - 10 - - - -
28/09:00pm 19.6 SSW 8 10 1017.3 - 0.0 - - 10 - - - -
28/08:30pm 19.4 SW 6 8 1017.3 - 0.0 - - 10 - - - -
28/08:00pm 19.7 SSW 8 9 1017.0 - 0.0 - - 10 - - - -
28/07:30pm 19.8 SSW 7 9 1017.0 - 0.0 - - 10 - - - -
28/07:00pm 19.3 SSW 6 7 1016.8 - 0.0 - - 10 - - - -
28/06:30pm 19.7 SW 6 7 1016.6 - 0.0 - - 10 - - - -
28/06:00pm 20.1 SSW 7 8 1016.1 - 0.0 - - 10 - - - -
28/05:30pm 20.9 SSW 9 11 1015.9 - 0.0 - - 10 - - - -
28/05:00pm 21.6 SSW 9 12 1015.7 - 0.0 - - 10 - - - -
28/04:30pm 21.9 SSW 11 13 1015.6 - 0.0 - - 10 - - - -
28/04:00pm 22.7 SSW 10 13 1015.6 - 0.0 - - 10 - - - -
28/03:30pm 22.8 SSW 11 13 1015.4 - 0.0 - - 10 - - - -
28/03:00pm 23.0 SSW 12 15 1015.4 - 0.0 Fine Mostly clear 30 - - - -
28/02:30pm 22.6 SSW 11 14 1015.6 - 0.0 - - 10 - - - -
28/02:00pm 22.9 SSW 11 14 1015.9 - 0.0 - - 10 - - - -
28/01:30pm 22.9 SSW 11 15 1016.3 - 0.0 - - 10 - - - -
28/01:00pm 22.7 SSW 12 16 1016.7 - 0.0 - - 10 - - - -
28/12:30pm 23.0 SSW 13 16 1017.0 - 0.0 - - 10 - - - -
28/12:00pm 22.8 SSW 13 17 1017.6 - 0.0 - - 10 - - - -
28/11:30am 23.0 S 12 15 1018.1 - 0.0 - - 10 - - - -
28/11:00am 22.3 SSW 13 17 1018.5 - 0.0 - - 10 - - - -
28/10:30am 22.2 S 13 16 1018.7 - 0.0 - Partly cloudy 10 - - - -
28/10:00am 21.6 S 10 13 1018.8 - 0.0 - - 10 - - - -
28/09:30am 20.9 S 10 12 1018.8 - 0.0 - - 10 - - - -
28/09:00am 19.7 SE 7 10 1018.7 - 0.0 Fine Mostly clear 27 - - - -
28/08:30am 18.4 ESE 5 8 1018.6 - 0.0 - - 10 - - - -
28/08:00am 15.8 ESE 5 7 1018.2 - 0.0 - - 10 - - - -
28/07:30am 13.7 ESE 5 5 1018.0 - 0.0 - - 10 - - - -
28/07:00am 13.1 ESE 3 5 1017.7 - 0.0 - - 10 - - - -
28/06:30am 13.5 ESE 5 5 1017.5 - 0.0 - - 10 - - - -
28/06:00am 14.0 ESE 6 7 1017.2 - 0.0 - - 10 - - - -
28/05:30am 15.7 SSE 6 8 1017.1 - 0.0 - - 10 - - - -
28/05:00am 17.1 S 10 12 1016.8 - 0.0 - - 10 - - - -
28/04:30am 17.4 S 11 13 1016.6 - 0.0 - - 10 - - - -
28/04:00am 17.1 S 11 13 1016.7 - 0.0 - - 10 - - - -
28/03:30am 14.7 SE 6 8 1016.9 - 0.0 - - 10 - - - -
28/03:00am 14.4 SE 5 6 1017.1 - 0.0 - - 10 - - - -
28/02:30am 15.3 SE 5 7 1017.4 - 0.0 - - 10 - - - -
28/02:00am 17.5 S 9 11 1017.4 - 0.0 - - 10 - - - -
28/01:30am 17.5 S 7 9 1017.7 - 0.0 - - 10 - - - -
28/01:00am 18.1 S 9 12 1017.7 - 0.0 - - 10 - - - -
28/12:30am 18.5 S 10 13 1018.0 - 0.0 - - 10 - - - -
28/12:00am 18.6 S 10 12 1018.1 - 0.0 - - 10 - - - -
 
Date/Time
WST
Temp

°C
Wind Pressure Rain
since 9am
mm
Weather Cloud Vis
km
Sea
Height
m
Swell
Dir
 
Speed
knots
Gust
knots
hPa Trend Height
m
Period
s
Dir
27/11:30pm 18.8 S 10 13 1018.2 - 0.0 - - 10 - - - -
27/11:00pm 19.3 S 12 15 1018.3 - 0.0 - - 10 - - - -
27/10:30pm 19.8 S 11 15 1018.5 - 0.0 - Partly cloudy 10 - - - -
27/10:00pm 20.3 S 11 13 1018.5 - 0.0 - Cloudy 10 - - - -
27/09:30pm 20.3 S 10 13 1018.3 - 0.0 - Partly cloudy 10 - - - -
27/09:00pm 20.2 SSW 12 15 1017.8 - 0.0 - - 10 - - - -
27/08:30pm 20.2 SSW 9 11 1017.7 - 0.0 - - 10 - - - -
27/08:00pm 20.4 SSW 11 13 1017.6 - 0.0 - - 10 - - - -
27/07:30pm 20.6 SSW 10 13 1017.6 - 0.0 - - 10 - - - -
27/07:00pm 20.7 SSW 12 15 1017.2 - 0.0 - Partly cloudy 10 - - - -
27/06:30pm 20.7 SSW 11 14 1017.1 - 0.0 - Partly cloudy 10 - - - -
27/06:00pm 20.9 SSW 11 15 1016.8 - 0.0 - Mostly clear 10 - - - -
27/05:30pm 21.4 SSW 11 15 1016.6 - 0.0 - Partly cloudy 10 - - - -
27/05:00pm 22.0 SSW 13 16 1016.2 - 0.0 - Partly cloudy 10 - - - -
27/04:30pm 22.4 SSW 13 17 1015.7 - 0.0 - Partly cloudy 10 - - - -
27/04:00pm 22.3 SSW 14 16 1015.7 - 0.0 - - 10 - - - -
27/03:30pm 22.6 SSW 14 17 1015.7 - 0.0 - - 10 - - - -
27/03:00pm 22.1 SSW 14 17 1015.6 - 0.0 Fine Mostly clear 25 - - - -
27/02:30pm 22.2 SSW 15 17 1015.6 - 0.0 - - 10 - - - -
27/02:00pm 23.1 SSW 15 19 1016.0 - 0.0 - - 10 - - - -
27/01:30pm 22.8 SSW 14 17 1016.2 - 0.0 - - 10 - - - -
27/01:00pm 22.7 SSW 13 17 1016.5 - 0.0 - - 10 - - - -
27/12:30pm 22.9 SSW 14 17 1017.0 - 0.0 - Partly cloudy 10 - - - -
27/12:00pm 25.1 E 7 10 1017.4 - 0.0 - Mostly clear 10 - - - -
27/11:30am 25.1 E 8 12 1017.9 - 0.0 - Partly cloudy 10 - - - -
27/11:00am 24.3 E 9 16 1018.4 - 0.0 - Partly cloudy 10 - - - -
27/10:30am 23.2 E 9 13 1018.9 - 0.0 - Cloudy 10 - - - -
27/10:00am 22.2 E 10 14 1019.1 - 0.0 - Partly cloudy 10 - - - -
27/09:30am 21.1 ESE 10 13 1019.3 - 0.0 - Partly cloudy 10 - - - -
27/09:00am 19.4 ESE 11 14 1019.1 - 0.0 Fine Mostly cloudy 27 - - - -
27/08:30am 18.6 ESE 9 12 1019.1 - 0.0 - Partly cloudy 10 - - - -
27/08:00am 17.9 SE 9 12 1019.0 - 0.0 - Partly cloudy 10 - - - -
27/07:30am 17.4 SE 8 11 1019.0 - 0.0 - - 10 - - - -
27/07:00am 17.2 SE 8 10 1018.5 - 0.0 - - 10 - - - -
27/06:30am 17.2 SE 8 10 1018.5 - 0.0 - Partly cloudy 10 - - - -
27/06:00am 17.5 ESE 9 11 1018.2 - 0.0 - Cloudy 10 - - - -
27/05:30am 17.3 SE 10 13 1018.2 - 0.0 - Partly cloudy 10 - - - -
27/05:00am 17.7 S 11 14 1018.6 - 0.0 - - 10 - - - -
27/04:30am 18.3 SSE 8 11 1018.2 - 0.0 - - 10 - - - -
27/04:00am 18.4 ESE 8 9 1018.2 - 0.0 - Partly cloudy 10 - - - -
27/03:30am 18.6 SSE 8 10 1018.8 - 0.0 - Partly cloudy 10 - - - -
27/03:00am 18.8 SSE 12 15 1018.9 - 0.0 - Cloudy 10 - - - -
27/02:30am 19.3 SSE 11 16 1018.9 - 0.0 - Partly cloudy 10 - - - -
27/02:00am 19.4 SE 10 12 1019.1 - 0.0 - Partly cloudy 10 - - - -
27/01:30am 19.4 SSE 10 13 1019.4 - 0.0 - Partly cloudy 10 - - - -
27/01:00am 19.5 S 10 12 1019.5 - 0.0 - Cloudy 10 - - - -
27/12:30am 19.5 S 9 11 1019.7 - 0.0 - Partly cloudy 10 - - - -
27/12:00am 19.6 S 8 9 1019.7 - 0.0 - Mostly cloudy 10 - - - -
 
Date/Time
WST
Temp

°C
Wind Pressure Rain
since 9am
mm
Weather Cloud Vis
km
Sea
Height
m
Swell
Dir
 
Speed
knots
Gust
knots
hPa Trend Height
m
Period
s
Dir
26/11:30pm 19.6 SSE 7 9 1019.4 - 0.0 - Cloudy 10 - - - -
26/11:00pm 19.8 SE 7 9 1019.2 - 0.0 - Cloudy 10 - - - -
26/10:30pm 19.7 SE 9 11 1019.2 - 0.0 - Partly cloudy 10 - - - -
26/10:00pm 19.5 S 9 11 1019.6 - 0.0 - - 10 - - - -
26/09:30pm 19.5 S 10 12 1019.8 - 0.0 - Partly cloudy 10 - - - -
26/09:00pm 19.4 SE 9 11 1019.5 - 0.0 - - 10 - - - -
26/08:30pm 19.8 SSE 11 14 1019.8 - 0.0 - - 10 - - - -
26/08:00pm 20.0 S 11 15 1020.0 - 0.0 - Partly cloudy 10 - - - -
26/07:30pm 20.3 S 11 14 1019.9 - 0.0 - - 10 - - - -
26/07:00pm 20.5 S 12 17 1019.5 - 0.0 - - 10 - - - -
26/06:30pm 20.6 S 13 17 1019.0 - 0.0 - - 10 - - - -
26/06:00pm 20.8 S 15 19 1018.9 - 0.0 - - 10 - - - -
26/05:30pm 21.2 S 16 20 1018.6 - 0.0 - - 10 - - - -
26/05:00pm 21.7 S 16 21 1018.1 - 0.0 - - 10 - - - -
26/04:30pm 22.1 S 16 20 1017.8 - 0.0 - - 10 - - - -
26/04:00pm 22.3 S 17 23 1017.8 - 0.0 - - 10 - - - -
26/03:30pm 22.8 SSW 15 20 1017.5 - 0.0 - - 10 - - - -
26/03:00pm 22.6 SSW 15 19 1017.2 - 0.0 Fine Partly cloudy 25 - - - -
26/02:30pm 22.9 S 16 20 1017.4 - 0.0 - - 10 - - - -
26/02:00pm 22.9 SSW 18 22 1017.7 - 0.0 - - 10 - - - -
26/01:30pm 23.2 SSW 17 22 1017.8 - 0.0 - - 10 - - - -
26/01:00pm 24.4 S 17 22 1017.8 - 0.0 - - 10 - - - -
26/12:30pm 24.7 S 15 21 1018.3 - 0.0 - - 10 - - - -
26/12:00pm 23.5 S 16 21 1018.6 - 0.0 - - 10 - - - -
26/11:30am 23.3 S 16 21 1019.0 - 0.0 - - 10 - - - -
26/11:00am 23.2 S 18 23 1019.5 - 0.0 - - 10 - - - -
26/10:30am 22.4 SSE 15 19 1019.6 - 0.0 - - 10 - - - -
26/10:00am 22.3 S 14 18 1019.5 - 0.0 - - 10 - - - -
26/09:30am 21.5 S 13 17 1019.7 - 0.0 - - 10 - - - -
26/09:00am 21.3 S 11 15 1019.4 - - Fine Mostly clear 25 - - - -
26/08:30am 20.3 S 9 12 1019.2 - - - - 10 - - - -

Other Formats:

Comma delimited format used in spreadsheet applications
http://www.bom.gov.au/fwo/IDW60701/IDW60701.94300.axf

JavaScript Object Notation format (JSON) in row-major order
http://www.bom.gov.au/fwo/IDW60701/IDW60701.94300.json